createdAt,value
2023-04-11T00:01:14.748Z,11.90
2023-04-11T00:03:41.501Z,11.73
2023-04-11T00:06:08.561Z,12.02
2023-04-11T00:08:35.303Z,12.13
2023-04-11T00:11:01.942Z,11.88
2023-04-11T00:13:28.506Z,11.88
2023-04-11T00:15:55.772Z,11.57
2023-04-11T00:20:49.492Z,10.93
2023-04-11T00:23:16.162Z,12.20
2023-04-11T00:25:42.779Z,12.10
2023-04-11T00:28:10.508Z,12.30
2023-04-11T00:30:37.126Z,11.98
2023-04-11T00:33:04.138Z,12.25
2023-04-11T00:35:34.576Z,12.20
2023-04-11T00:38:02.301Z,12.10
2023-04-11T00:40:29.346Z,12.50
2023-04-11T00:42:56.789Z,12.25
2023-04-11T00:47:50.715Z,12.05
2023-04-11T00:52:46.736Z,11.82
2023-04-11T00:55:14.160Z,13.18
2023-04-11T01:00:12.034Z,13.10
2023-04-11T01:02:43.241Z,12.23
2023-04-11T01:05:12.089Z,12.55
2023-04-11T01:07:41.432Z,12.82
2023-04-11T01:10:08.949Z,12.18
2023-04-11T01:12:36.922Z,12.15
2023-04-11T01:15:04.097Z,13.07
2023-04-11T01:17:32.588Z,12.48
2023-04-11T01:20:00.056Z,12.43
2023-04-11T01:24:54.049Z,11.73
2023-04-11T01:27:20.760Z,12.45
2023-04-11T01:29:47.308Z,12.25
2023-04-11T01:32:13.901Z,12.03
2023-04-11T01:34:42.175Z,12.60
2023-04-11T01:37:09.560Z,12.00
2023-04-11T01:42:04.536Z,11.48
2023-04-11T01:44:32.467Z,11.05
2023-04-11T01:46:59.663Z,12.45
2023-04-11T01:49:26.518Z,12.13
2023-04-11T01:51:53.137Z,11.80
2023-04-11T01:54:19.699Z,13.18
2023-04-11T01:56:46.625Z,12.00
2023-04-11T01:59:13.425Z,12.15
2023-04-11T02:01:43.413Z,12.23
2023-04-11T02:04:10.646Z,12.60
2023-04-11T02:06:38.572Z,12.18
2023-04-11T02:09:05.898Z,12.00
2023-04-11T02:11:32.607Z,11.68
2023-04-11T02:13:59.846Z,12.27
2023-04-11T02:16:29.958Z,12.05
2023-04-11T02:18:57.272Z,12.02
2023-04-11T02:23:50.398Z,12.20
2023-04-11T02:26:17.040Z,12.02
2023-04-11T02:28:43.636Z,9.23
2023-04-11T02:31:10.569Z,12.00
2023-04-11T02:33:37.313Z,12.43
2023-04-11T02:36:04.237Z,12.63
2023-04-11T02:38:30.878Z,12.93
2023-04-11T02:40:59.470Z,11.33
2023-04-11T02:43:26.149Z,12.25
2023-04-11T02:45:59.070Z,12.23
2023-04-11T02:48:32.608Z,11.23
2023-04-11T02:50:59.241Z,11.68
2023-04-11T02:53:26.149Z,11.55
2023-04-11T02:55:52.738Z,11.23
2023-04-11T02:58:20.156Z,10.87
2023-04-11T03:03:16.045Z,10.57
2023-04-11T03:05:42.710Z,11.45
2023-04-11T03:08:09.365Z,11.20
2023-04-11T03:10:36.234Z,11.50
2023-04-11T03:13:02.794Z,10.90
2023-04-11T03:15:32.306Z,11.20
2023-04-11T03:17:58.967Z,11.45
2023-04-11T03:20:25.535Z,11.20
2023-04-11T03:22:52.140Z,10.97
2023-04-11T03:25:18.730Z,11.07
2023-04-11T03:27:45.331Z,11.70
2023-04-11T03:30:13.028Z,11.40
2023-04-11T03:32:39.681Z,11.15
2023-04-11T03:35:06.431Z,11.35
2023-04-11T03:37:33.015Z,11.40
2023-04-11T03:39:59.527Z,10.60
2023-04-11T03:42:26.317Z,11.07
2023-04-11T03:44:52.973Z,11.43
2023-04-11T03:47:19.510Z,11.20
2023-04-11T03:49:46.064Z,10.83
2023-04-11T03:52:15.124Z,10.93
2023-04-11T03:54:41.846Z,10.75
2023-04-11T03:57:09.244Z,11.05
2023-04-11T04:02:02.550Z,11.70
2023-04-11T04:04:30.473Z,10.65
2023-04-11T04:06:57.197Z,11.05
2023-04-11T04:09:24.347Z,11.73
2023-04-11T04:11:50.947Z,11.40
2023-04-11T04:14:17.583Z,11.35
2023-04-11T04:16:44.214Z,10.63
2023-04-11T04:19:11.285Z,10.80
2023-04-11T04:21:38.106Z,10.85
2023-04-11T04:24:05.207Z,11.80
2023-04-11T04:26:32.062Z,10.88
2023-04-11T04:29:04.569Z,11.10
2023-04-11T04:31:33.968Z,10.25
2023-04-11T04:34:08.793Z,10.93
2023-04-11T04:36:49.373Z,10.52
2023-04-11T04:39:19.651Z,10.50
2023-04-11T04:41:49.852Z,10.45
2023-04-11T04:44:16.626Z,11.35
2023-04-11T04:46:43.588Z,10.73
2023-04-11T04:49:10.405Z,11.73
2023-04-11T04:51:37.343Z,11.00
2023-04-11T04:54:05.011Z,11.07
2023-04-11T04:56:31.996Z,12.60
2023-04-11T04:58:58.733Z,10.90
2023-04-11T05:01:26.968Z,11.75
2023-04-11T05:04:01.139Z,11.38
2023-04-11T05:06:29.947Z,11.60
2023-04-11T05:08:58.670Z,10.82
2023-04-11T05:11:26.082Z,10.63
2023-04-11T05:16:20.059Z,11.43
2023-04-11T05:21:14.392Z,11.20
2023-04-11T05:23:41.656Z,11.25
2023-04-11T05:26:09.208Z,11.43
2023-04-11T05:28:36.040Z,11.23
2023-04-11T05:31:03.141Z,11.15
2023-04-11T05:33:29.960Z,11.60
2023-04-11T05:35:56.709Z,10.60
2023-04-11T05:38:23.284Z,12.18
2023-04-11T05:40:49.858Z,10.73
2023-04-11T05:43:16.427Z,11.75
2023-04-11T05:45:47.875Z,11.53
2023-04-11T05:48:16.249Z,12.00
2023-04-11T05:50:43.102Z,12.02
2023-04-11T05:53:09.864Z,12.07
2023-04-11T05:55:37.465Z,11.52
2023-04-11T05:58:04.470Z,11.38
2023-04-11T06:00:32.383Z,11.50
2023-04-11T06:03:00.395Z,12.38
2023-04-11T06:05:31.344Z,12.68
2023-04-11T06:08:02.935Z,12.00
2023-04-11T06:10:30.684Z,12.25
2023-04-11T06:12:58.055Z,12.32
2023-04-11T06:17:52.611Z,12.52
2023-04-11T06:20:20.470Z,12.13
2023-04-11T06:22:51.162Z,13.05
2023-04-11T06:25:21.799Z,12.80
2023-04-11T06:27:48.862Z,12.88
2023-04-11T06:30:15.621Z,12.55
2023-04-11T06:32:42.527Z,12.80
2023-04-11T06:35:09.577Z,12.73
2023-04-11T06:37:36.349Z,12.55
2023-04-11T06:40:05.402Z,13.07
2023-04-11T06:42:32.036Z,11.98
2023-04-11T06:44:58.729Z,12.63
2023-04-11T06:47:25.700Z,12.05
2023-04-11T06:49:52.310Z,12.55
2023-04-11T06:52:18.864Z,12.60
2023-04-11T06:54:47.317Z,13.23
2023-04-11T06:57:14.118Z,12.45
2023-04-11T06:59:40.661Z,12.85
2023-04-11T07:02:07.954Z,12.40
2023-04-11T07:07:01.295Z,12.52
2023-04-11T07:09:28.048Z,12.50
2023-04-11T07:11:54.595Z,12.77
2023-04-11T07:14:21.159Z,12.20
2023-04-11T07:16:47.884Z,11.83
2023-04-11T07:19:14.450Z,11.82
2023-04-11T07:21:41.111Z,12.00
2023-04-11T07:24:07.864Z,12.43
2023-04-11T07:26:36.021Z,11.68
2023-04-11T07:29:02.718Z,11.90
2023-04-11T07:31:29.408Z,12.18
2023-04-11T07:33:56.217Z,11.68
2023-04-11T07:36:23.094Z,10.82
2023-04-11T07:38:49.813Z,12.30
2023-04-11T07:41:16.442Z,12.13
2023-04-11T07:43:43.143Z,12.43
2023-04-11T07:46:09.967Z,14.15
2023-04-11T07:48:36.701Z,12.95
2023-04-11T07:51:03.248Z,11.17
2023-04-11T07:53:32.682Z,10.70
2023-04-11T07:55:59.581Z,10.13
2023-04-11T07:58:26.219Z,10.18
2023-04-11T08:00:53.694Z,10.27
2023-04-11T08:03:21.051Z,10.75
2023-04-11T08:05:47.827Z,11.00
2023-04-11T08:08:14.367Z,10.23
2023-04-11T08:10:41.099Z,9.60
2023-04-11T08:13:07.706Z,10.00
2023-04-11T08:15:36.937Z,9.37
2023-04-11T08:18:05.962Z,10.10
2023-04-11T08:20:32.669Z,8.73
2023-04-11T08:22:59.535Z,13.32
2023-04-11T08:25:26.443Z,9.27
2023-04-11T08:27:53.130Z,9.40
2023-04-11T08:30:20.410Z,9.10
2023-04-11T08:32:47.213Z,10.02
2023-04-11T08:35:14.014Z,9.80
2023-04-11T08:37:40.764Z,9.20
2023-04-11T08:40:08.298Z,9.52
2023-04-11T08:42:35.356Z,10.57
2023-04-11T08:45:04.895Z,10.30
2023-04-11T08:47:31.675Z,10.50
2023-04-11T08:49:58.302Z,10.23
2023-04-11T08:52:25.142Z,10.17
2023-04-11T08:54:56.224Z,11.13
2023-04-11T08:57:26.321Z,10.82
2023-04-11T08:59:55.744Z,10.10
2023-04-11T09:02:22.957Z,9.70
2023-04-11T09:04:49.725Z,10.60
2023-04-11T09:07:17.082Z,11.20
2023-04-11T09:09:43.896Z,11.82
2023-04-11T09:12:11.142Z,10.70
2023-04-11T09:14:37.757Z,11.68
2023-04-11T09:17:06.505Z,10.70
2023-04-11T09:19:34.886Z,9.88
2023-04-11T09:22:06.680Z,11.05
2023-04-11T09:24:35.399Z,9.63
2023-04-11T09:27:10.059Z,10.68
2023-04-11T09:29:40.494Z,10.23
2023-04-11T09:32:07.286Z,9.70
2023-04-11T09:34:37.814Z,9.40
2023-04-11T09:37:04.689Z,9.50
2023-04-11T09:39:32.632Z,9.43
2023-04-11T09:41:59.451Z,9.70
2023-04-11T09:44:38.863Z,9.00
2023-04-11T09:47:05.740Z,9.13
2023-04-11T09:49:34.250Z,9.35
2023-04-11T09:52:01.324Z,9.35
2023-04-11T09:54:28.877Z,9.18
2023-04-11T09:56:57.240Z,8.82
2023-04-11T09:59:26.881Z,9.40
2023-04-11T10:01:53.791Z,8.63
2023-04-11T10:04:20.592Z,9.25
2023-04-11T10:07:03.802Z,8.90
2023-04-11T10:09:32.433Z,9.60
2023-04-11T10:11:59.351Z,10.30
2023-04-11T10:14:37.950Z,9.30
2023-04-11T10:17:24.292Z,9.65
2023-04-11T10:19:56.660Z,9.48
2023-04-11T10:22:50.932Z,9.88
2023-04-11T10:25:21.665Z,9.45
2023-04-11T10:28:00.868Z,9.05
2023-04-11T10:30:40.060Z,11.70
2023-04-11T10:33:19.861Z,11.50
2023-04-11T10:36:12.345Z,11.25
2023-04-11T10:38:47.184Z,10.85
2023-04-11T10:41:26.864Z,10.45
2023-04-11T10:44:21.114Z,12.13
2023-04-11T10:46:53.805Z,10.95
2023-04-11T10:49:34.842Z,10.02
2023-04-11T10:52:23.911Z,10.30
2023-04-11T10:54:52.345Z,9.95
2023-04-11T10:57:19.600Z,8.43
2023-04-11T10:59:52.270Z,8.68
2023-04-11T11:02:20.154Z,8.77
2023-04-11T11:04:47.311Z,8.75
2023-04-11T11:07:17.909Z,8.88
2023-04-11T11:09:49.420Z,8.30
2023-04-11T11:12:17.271Z,8.55
2023-04-11T11:14:46.902Z,8.90
2023-04-11T11:17:15.816Z,8.32
2023-04-11T11:19:46.254Z,9.10
2023-04-11T11:22:25.741Z,9.38
2023-04-11T11:24:52.841Z,9.75
2023-04-11T11:27:24.037Z,9.68
2023-04-11T11:29:51.902Z,9.68
2023-04-11T11:32:29.242Z,9.85
2023-04-11T11:34:57.711Z,9.85
2023-04-11T11:37:25.185Z,8.30
2023-04-11T11:39:52.241Z,9.65
2023-04-11T11:42:19.096Z,9.45
2023-04-11T11:44:46.006Z,10.15
2023-04-11T11:47:16.363Z,9.80
2023-04-11T11:49:55.509Z,9.30
2023-04-11T11:52:41.596Z,9.65
2023-04-11T11:55:29.227Z,9.68
2023-04-11T11:58:00.912Z,9.85
2023-04-11T12:00:28.953Z,8.40
2023-04-11T12:02:57.682Z,8.02
2023-04-11T12:05:30.216Z,8.85
2023-04-11T12:07:59.482Z,8.68
2023-04-11T12:10:36.724Z,9.00
2023-04-11T12:15:37.607Z,8.52
2023-04-11T12:18:06.090Z,8.88
2023-04-11T12:20:32.874Z,8.60
2023-04-11T12:22:59.478Z,8.45
2023-04-11T12:25:27.732Z,8.40
2023-04-11T12:27:54.381Z,8.50
2023-04-11T12:30:21.129Z,8.07
2023-04-11T12:32:47.749Z,7.30
2023-04-11T12:35:14.466Z,7.78
2023-04-11T12:37:41.332Z,8.02
2023-04-11T12:40:12.527Z,7.55
2023-04-11T12:42:53.311Z,8.23
2023-04-11T12:45:22.964Z,7.55
2023-04-11T12:47:49.555Z,7.60
2023-04-11T12:50:16.206Z,7.28
2023-04-11T12:52:42.813Z,7.70
2023-04-11T12:55:09.960Z,7.88
2023-04-11T12:57:36.840Z,7.32
2023-04-11T13:00:11.670Z,7.72
2023-04-11T13:02:44.143Z,7.65
2023-04-11T13:05:14.203Z,8.02
2023-04-11T13:07:41.245Z,7.10
2023-04-11T13:10:08.605Z,7.10
2023-04-11T13:12:39.858Z,7.50
2023-04-11T13:15:08.073Z,8.13
2023-04-11T13:17:34.939Z,7.97
2023-04-11T13:20:01.714Z,8.20
2023-04-11T13:22:28.214Z,8.63
2023-04-11T13:24:54.809Z,8.10
2023-04-11T13:27:22.158Z,8.73
2023-04-11T13:32:15.846Z,8.20
2023-04-11T13:34:42.607Z,8.15
2023-04-11T13:37:09.414Z,8.52
2023-04-11T13:39:36.309Z,8.68
2023-04-11T13:42:02.994Z,7.90
2023-04-11T13:44:29.601Z,7.70
2023-04-11T13:46:56.262Z,8.60
2023-04-11T13:49:22.822Z,8.57
2023-04-11T13:51:49.450Z,7.78
2023-04-11T13:54:16.062Z,8.98
2023-04-11T13:56:42.630Z,8.98
2023-04-11T13:59:09.264Z,9.23
2023-04-11T14:01:35.949Z,8.40
2023-04-11T14:04:02.829Z,8.82
2023-04-11T14:06:29.659Z,7.75
2023-04-11T14:08:56.268Z,8.73
2023-04-11T14:11:22.919Z,8.57
2023-04-11T14:13:49.574Z,8.52
2023-04-11T14:16:16.243Z,7.97
2023-04-11T14:18:43.087Z,8.77
2023-04-11T14:21:09.641Z,8.93
2023-04-11T14:23:36.333Z,8.23
2023-04-11T14:26:02.988Z,8.65
2023-04-11T14:28:29.563Z,8.73
2023-04-11T14:30:56.679Z,8.02
2023-04-11T14:33:23.635Z,8.60
2023-04-11T14:35:50.977Z,8.73
2023-04-11T14:40:44.354Z,8.60
2023-04-11T14:43:11.295Z,8.57
2023-04-11T14:45:38.133Z,8.55
2023-04-11T14:48:05.497Z,9.00
2023-04-11T14:52:58.734Z,9.38
2023-04-11T14:55:25.392Z,8.55
2023-04-11T14:57:54.184Z,8.82
2023-04-11T15:00:21.928Z,8.85
2023-04-11T15:02:51.104Z,9.00
2023-04-11T15:05:19.620Z,8.70
2023-04-11T15:07:48.044Z,8.75
2023-04-11T15:10:16.518Z,8.98
2023-04-11T15:12:43.116Z,8.80
2023-04-11T15:15:11.157Z,9.40
2023-04-11T15:17:42.548Z,9.85
2023-04-11T15:20:11.467Z,8.60
2023-04-11T15:22:41.265Z,9.20
2023-04-11T15:25:10.986Z,9.25
2023-04-11T15:27:37.855Z,9.68
2023-04-11T15:30:06.164Z,9.82
2023-04-11T15:32:33.031Z,9.43
2023-04-11T15:34:59.889Z,10.52
2023-04-11T15:37:26.616Z,10.27
2023-04-11T15:39:53.508Z,10.50
2023-04-11T15:42:20.332Z,10.40
2023-04-11T15:44:46.950Z,10.02
2023-04-11T15:47:13.721Z,10.40
2023-04-11T15:49:41.005Z,10.23
2023-04-11T15:52:07.594Z,10.10
2023-04-11T15:54:34.159Z,11.65
2023-04-11T15:57:02.422Z,10.63
2023-04-11T15:59:29.455Z,11.13
2023-04-11T16:01:56.354Z,11.55
2023-04-11T16:04:23.082Z,11.40
2023-04-11T16:06:49.736Z,11.00
2023-04-11T16:09:16.369Z,11.05
2023-04-11T16:11:43.062Z,11.55
2023-04-11T16:14:11.170Z,11.82
2023-04-11T16:16:38.065Z,11.95
2023-04-11T16:19:05.399Z,11.55
2023-04-11T16:21:31.944Z,11.68
2023-04-11T16:23:58.908Z,11.37
2023-04-11T16:26:25.633Z,11.35
2023-04-11T16:28:52.165Z,11.10
2023-04-11T16:31:24.527Z,11.53
2023-04-11T16:33:52.826Z,12.13
2023-04-11T16:36:20.470Z,11.52
2023-04-11T16:38:49.744Z,11.95
2023-04-11T16:41:17.416Z,12.65
2023-04-11T16:43:44.672Z,11.77
2023-04-11T16:46:15.539Z,12.30
2023-04-11T16:48:43.109Z,12.65
2023-04-11T16:51:13.449Z,12.13
2023-04-11T16:53:40.923Z,13.48
2023-04-11T16:58:34.120Z,13.23
2023-04-11T17:01:01.805Z,13.13
2023-04-11T17:03:28.663Z,13.68
2023-04-11T17:05:55.474Z,12.82
2023-04-11T17:08:22.056Z,12.40
2023-04-11T17:10:48.724Z,12.53
2023-04-11T17:13:18.051Z,11.63
2023-04-11T17:15:45.645Z,12.65
2023-04-11T17:18:14.101Z,12.57
2023-04-11T17:20:41.406Z,12.32
2023-04-11T17:23:08.014Z,12.60
2023-04-11T17:25:34.848Z,12.60
2023-04-11T17:28:01.579Z,12.30
2023-04-11T17:30:29.148Z,12.88
2023-04-11T17:32:56.143Z,11.95
2023-04-11T17:35:22.806Z,11.68
2023-04-11T17:37:50.930Z,12.48
2023-04-11T17:40:18.773Z,12.27
2023-04-11T17:42:46.095Z,12.75
2023-04-11T17:45:17.550Z,11.88
2023-04-11T17:47:46.324Z,12.90
2023-04-11T17:50:13.622Z,11.90
2023-04-11T17:52:42.029Z,12.43
2023-04-11T17:55:13.331Z,13.35
2023-04-11T17:57:40.295Z,12.23
2023-04-11T18:00:22.181Z,11.35
2023-04-11T18:02:52.431Z,13.45
2023-04-11T18:05:24.588Z,12.48
2023-04-11T18:07:54.541Z,11.77
2023-04-11T18:10:22.083Z,12.15
2023-04-11T18:12:52.585Z,11.45
2023-04-11T18:15:20.332Z,11.70
2023-04-11T18:17:47.160Z,12.88
2023-04-11T18:20:15.501Z,11.43
2023-04-11T18:22:47.495Z,11.52
2023-04-11T18:25:14.217Z,13.20
2023-04-11T18:27:41.642Z,11.93
2023-04-11T18:32:43.653Z,11.13
2023-04-11T18:35:11.868Z,11.50
2023-04-11T18:37:42.876Z,10.38
2023-04-11T18:40:12.040Z,10.63
2023-04-11T18:42:39.919Z,10.77
2023-04-11T18:45:07.120Z,10.48
2023-04-11T18:47:34.595Z,10.52
2023-04-11T18:50:01.830Z,10.50
2023-04-11T18:52:29.298Z,10.35
2023-04-11T18:54:56.456Z,10.13
2023-04-11T18:57:25.894Z,10.38
2023-04-11T18:59:56.510Z,10.30
2023-04-11T19:02:24.368Z,10.10
2023-04-11T19:04:53.376Z,10.15
2023-04-11T19:07:20.161Z,9.15
2023-04-11T19:09:47.090Z,9.70
2023-04-11T19:12:16.993Z,10.40
2023-04-11T19:14:43.873Z,9.30
2023-04-11T19:17:13.554Z,9.63
2023-04-11T19:19:40.316Z,9.20
2023-04-11T19:22:07.471Z,9.57
2023-04-11T19:24:34.045Z,8.65
2023-04-11T19:27:01.629Z,9.90
2023-04-11T19:29:28.160Z,9.30
2023-04-11T19:31:54.974Z,8.93
2023-04-11T19:34:21.654Z,8.80
2023-04-11T19:36:48.257Z,8.15
2023-04-11T19:39:14.808Z,8.95
2023-04-11T19:41:45.549Z,9.40
2023-04-11T19:44:12.442Z,9.07
2023-04-11T19:46:39.537Z,9.52
2023-04-11T19:49:06.091Z,8.98
2023-04-11T19:51:32.670Z,8.80
2023-04-11T19:53:59.562Z,8.83
2023-04-11T19:56:26.682Z,8.57
2023-04-11T19:58:53.284Z,7.82
2023-04-11T20:01:19.988Z,8.18
2023-04-11T20:03:46.802Z,8.57
2023-04-11T20:06:13.717Z,8.50
2023-04-11T20:08:40.324Z,8.32
2023-04-11T20:11:06.943Z,8.93
2023-04-11T20:13:33.996Z,8.82
2023-04-11T20:16:04.690Z,9.05
2023-04-11T20:18:31.493Z,9.20
2023-04-11T20:20:58.472Z,9.15
2023-04-11T20:23:26.021Z,10.00
2023-04-11T20:25:52.632Z,22.27
2023-04-11T20:28:19.164Z,10.20
2023-04-11T20:30:45.915Z,8.73
2023-04-11T20:33:12.553Z,7.90
2023-04-11T20:35:39.390Z,8.10
2023-04-11T20:38:05.985Z,8.73
2023-04-11T20:40:32.516Z,8.00
2023-04-11T20:43:00.949Z,7.87
2023-04-11T20:45:28.735Z,8.23
2023-04-11T20:47:56.348Z,9.13
2023-04-11T20:50:23.030Z,9.20
2023-04-11T20:52:53.016Z,8.00
2023-04-11T20:55:20.892Z,8.20
2023-04-11T20:57:47.710Z,11.15
2023-04-11T21:00:16.511Z,8.10
2023-04-11T21:02:46.216Z,10.00
2023-04-11T21:05:13.772Z,8.20
2023-04-11T21:10:08.761Z,10.43
2023-04-11T21:12:35.825Z,8.48
2023-04-11T21:15:03.466Z,8.52
2023-04-11T21:17:35.218Z,8.70
2023-04-11T21:20:17.747Z,8.38
2023-04-11T21:22:45.232Z,8.80
2023-04-11T21:25:11.776Z,8.60
2023-04-11T21:27:38.385Z,9.17
2023-04-11T21:30:06.352Z,8.43
2023-04-11T21:32:33.100Z,8.25
2023-04-11T21:34:59.783Z,8.20
2023-04-11T21:37:26.331Z,9.32
2023-04-11T21:39:55.728Z,8.20
2023-04-11T21:42:22.266Z,8.75
2023-04-11T21:44:48.796Z,8.77
2023-04-11T21:47:15.493Z,8.03
2023-04-11T21:49:42.078Z,8.57
2023-04-11T21:52:09.233Z,9.20
2023-04-11T21:54:36.067Z,9.48
2023-04-11T21:57:02.684Z,9.23
2023-04-11T21:59:29.373Z,9.13
2023-04-11T22:01:56.374Z,8.93
2023-04-11T22:04:23.205Z,8.80
2023-04-11T22:06:49.942Z,8.98
2023-04-11T22:09:20.405Z,9.30
2023-04-11T22:11:47.011Z,9.40
2023-04-11T22:14:16.331Z,8.97
2023-04-11T22:16:48.916Z,9.23
2023-04-11T22:19:19.709Z,9.60
2023-04-11T22:21:48.726Z,9.60
2023-04-11T22:24:15.388Z,8.88
2023-04-11T22:26:42.792Z,8.88
2023-04-11T22:31:39.069Z,9.23
2023-04-11T22:34:08.094Z,9.10
2023-04-11T22:36:37.559Z,9.05
2023-04-11T22:39:05.939Z,9.00
2023-04-11T22:41:33.406Z,9.43
2023-04-11T22:46:31.184Z,9.13
2023-04-11T22:48:58.009Z,9.32
2023-04-11T22:51:24.927Z,9.55
2023-04-11T22:53:51.413Z,8.80
2023-04-11T22:56:18.081Z,8.47
2023-04-11T22:58:45.801Z,8.43
2023-04-11T23:01:13.955Z,8.80
2023-04-11T23:03:41.471Z,8.98
2023-04-11T23:08:34.771Z,8.35
2023-04-11T23:11:01.351Z,9.13
2023-04-11T23:13:27.966Z,8.40
2023-04-11T23:15:54.815Z,8.83
2023-04-11T23:18:21.532Z,8.68
2023-04-11T23:20:49.419Z,8.55
2023-04-11T23:23:16.679Z,9.05
2023-04-11T23:25:43.250Z,8.65
2023-04-11T23:28:09.857Z,8.48
2023-04-11T23:30:37.454Z,8.30
2023-04-11T23:33:05.916Z,8.25
2023-04-11T23:35:34.106Z,8.38
2023-04-11T23:38:01.907Z,8.60
2023-04-11T23:40:29.748Z,8.43
2023-04-11T23:42:59.427Z,9.00
2023-04-11T23:45:26.298Z,8.93
2023-04-11T23:47:53.000Z,8.98
2023-04-11T23:50:19.879Z,9.02
2023-04-11T23:52:47.087Z,9.43
2023-04-11T23:55:13.677Z,9.27
2023-04-11T23:57:40.702Z,9.03
